Time;durP1;ratioP1;P1;durP2;ratioP2;P2;SDS_P1;SDS_P2;PMS_P1;PMS_P2;Temp;Humidity;BMP_temperature;BMP_pressure;BME280_temperature;BME280_humidity;BME280_pressure;Samples;Min_cycle;Max_cycle;Signal;HPM_P1;HPM_P2
2022/04/17 00:01:12;;;;;;;14.10;9.67;;;;;;;;;;5076279;28;20452;-71
2022/04/17 00:03:39;;;;;;;13.37;9.23;;;;;;;;;;5076484;28;20929;-71
2022/04/17 00:06:06;;;;;;;17.40;10.17;;;;;;;;;;5076245;28;20456;-71
2022/04/17 00:08:34;;;;;;;15.50;8.90;;;;;;;;;;5076136;28;20499;-71
2022/04/17 00:11:01;;;;;;;10.27;8.53;;;;;;;;;;5075942;28;20519;-71
2022/04/17 00:13:29;;;;;;;16.60;9.00;;;;;;;;;;5076016;28;20941;-72
2022/04/17 00:15:56;;;;;;;12.10;7.60;;;;;;;;;;5076154;28;20928;-71
2022/04/17 00:18:24;;;;;;;13.20;9.10;;;;;;;;;;5075940;28;20463;-71
2022/04/17 00:20:51;;;;;;;14.80;8.20;;;;;;;;;;5076188;28;20509;-71
2022/04/17 00:23:18;;;;;;;12.40;10.03;;;;;;;;;;5075640;28;20459;-71
2022/04/17 00:25:46;;;;;;;12.77;9.33;;;;;;;;;;5075893;28;20972;-71
2022/04/17 00:28:13;;;;;;;13.33;10.23;;;;;;;;;;5075963;28;20983;-71
2022/04/17 00:30:40;;;;;;;15.77;9.47;;;;;;;;;;5075834;28;21014;-71
2022/04/17 00:33:07;;;;;;;17.73;10.63;;;;;;;;;;5075834;28;20458;-71
2022/04/17 00:35:36;;;;;;;12.17;9.20;;;;;;;;;;5075546;28;20466;-71
2022/04/17 00:38:04;;;;;;;12.47;7.87;;;;;;;;;;5075692;28;20444;-71
2022/04/17 00:40:31;;;;;;;13.47;9.40;;;;;;;;;;5075829;28;20456;-71
2022/04/17 00:42:59;;;;;;;12.27;7.60;;;;;;;;;;5075534;28;21014;-71
2022/04/17 00:45:26;;;;;;;11.30;8.60;;;;;;;;;;5075350;28;20525;-71
2022/04/17 00:47:53;;;;;;;12.87;8.10;;;;;;;;;;5075401;28;20466;-71
2022/04/17 00:50:21;;;;;;;12.90;9.60;;;;;;;;;;5075398;28;20897;-71
2022/04/17 00:52:49;;;;;;;11.73;8.40;;;;;;;;;;5075426;28;20834;-71
2022/04/17 00:55:17;;;;;;;14.43;8.70;;;;;;;;;;5075125;28;20455;-71
2022/04/17 00:57:44;;;;;;;10.77;8.47;;;;;;;;;;5075511;28;20964;-71
2022/04/17 01:00:12;;;;;;;13.07;8.50;;;;;;;;;;5075333;28;20992;-71
2022/04/17 01:02:39;;;;;;;15.97;8.90;;;;;;;;;;5075414;28;20960;-71
2022/04/17 01:05:07;;;;;;;15.30;8.40;;;;;;;;;;5075021;28;20460;-71
2022/04/17 01:07:34;;;;;;;13.13;8.27;;;;;;;;;;5075301;28;20509;-71
2022/04/17 01:10:03;;;;;;;10.67;7.77;;;;;;;;;;5075173;28;20487;-71
2022/04/17 01:12:30;;;;;;;12.30;7.73;;;;;;;;;;5075180;28;20487;-71
2022/04/17 01:14:57;;;;;;;12.43;8.30;;;;;;;;;;5074785;28;20450;-71
2022/04/17 01:17:24;;;;;;;10.30;7.77;;;;;;;;;;5075339;28;20816;-71
2022/04/17 01:19:51;;;;;;;12.30;8.17;;;;;;;;;;5074844;28;20846;-71
2022/04/17 01:22:20;;;;;;;19.10;9.10;;;;;;;;;;5074518;28;20460;-71
2022/04/17 01:27:32;;;;;;;15.30;9.10;;;;;;;;;;5075046;28;20530;-71
2022/04/17 01:29:59;;;;;;;10.80;8.43;;;;;;;;;;5074636;28;20488;-71
2022/04/17 01:32:26;;;;;;;14.60;9.70;;;;;;;;;;5074830;28;20456;-71
2022/04/17 01:34:53;;;;;;;13.73;8.83;;;;;;;;;;5074336;28;20459;-71
2022/04/17 01:37:22;;;;;;;13.13;9.17;;;;;;;;;;5074709;28;20455;-71
2022/04/17 01:39:49;;;;;;;14.47;9.90;;;;;;;;;;5074614;28;20471;-71
2022/04/17 01:42:16;;;;;;;12.33;9.40;;;;;;;;;;5074555;28;20448;-71
2022/04/17 01:44:43;;;;;;;15.90;10.00;;;;;;;;;;5074293;28;20827;-71
2022/04/17 01:47:10;;;;;;;11.87;9.37;;;;;;;;;;5074255;28;20839;-71
2022/04/17 01:49:37;;;;;;;11.57;8.57;;;;;;;;;;5074590;28;20482;-71
2022/04/17 01:52:05;;;;;;;13.37;8.57;;;;;;;;;;5074317;28;20495;-71
2022/04/17 01:54:33;;;;;;;14.47;8.87;;;;;;;;;;5074197;28;20801;-71
2022/04/17 01:57:01;;;;;;;11.60;8.53;;;;;;;;;;5074475;28;20448;-71
2022/04/17 01:59:28;;;;;;;12.00;7.70;;;;;;;;;;5074124;28;20471;-71
2022/04/17 02:01:55;;;;;;;15.60;8.83;;;;;;;;;;5074068;28;20452;-71
2022/04/17 02:04:23;;;;;;;12.57;7.60;;;;;;;;;;5074114;28;20854;-71
2022/04/17 02:06:50;;;;;;;11.87;8.60;;;;;;;;;;5073647;28;20456;-71
2022/04/17 02:09:18;;;;;;;11.83;8.80;;;;;;;;;;5073689;28;20475;-71
2022/04/17 02:11:47;;;;;;;11.47;7.97;;;;;;;;;;5074006;28;20479;-71
2022/04/17 02:14:15;;;;;;;10.97;8.93;;;;;;;;;;5073588;28;20463;-71
2022/04/17 02:16:42;;;;;;;9.37;8.10;;;;;;;;;;5073844;28;20448;-71
2022/04/17 02:19:09;;;;;;;12.70;8.60;;;;;;;;;;5073814;28;20463;-71
2022/04/17 02:21:36;;;;;;;12.80;9.57;;;;;;;;;;5073077;28;20460;-71
2022/04/17 02:24:04;;;;;;;14.63;9.50;;;;;;;;;;5073482;28;20816;-71
2022/04/17 02:26:31;;;;;;;16.30;10.60;;;;;;;;;;5073626;28;20554;-71
2022/04/17 02:28:59;;;;;;;11.40;7.90;;;;;;;;;;5073560;28;20878;-71
2022/04/17 02:31:27;;;;;;;15.93;9.90;;;;;;;;;;5073608;28;20903;-71
2022/04/17 02:33:54;;;;;;;9.70;7.33;;;;;;;;;;5073408;28;20964;-71
2022/04/17 02:36:21;;;;;;;15.53;9.17;;;;;;;;;;5073541;28;20455;-71
2022/04/17 02:38:48;;;;;;;12.77;9.40;;;;;;;;;;5073423;28;20510;-71
2022/04/17 02:41:15;;;;;;;16.07;10.20;;;;;;;;;;5073416;28;20440;-71
2022/04/17 02:43:43;;;;;;;13.03;8.60;;;;;;;;;;5073323;28;20463;-71
2022/04/17 02:46:11;;;;;;;14.10;10.00;;;;;;;;;;5073390;28;20455;-71
2022/04/17 02:48:37;;;;;;;17.90;10.50;;;;;;;;;;5073225;28;20472;-71
2022/04/17 02:51:06;;;;;;;21.93;11.70;;;;;;;;;;5073292;28;20560;-71
2022/04/17 02:53:34;;;;;;;13.00;10.23;;;;;;;;;;5073278;28;20966;-71
2022/04/17 02:56:01;;;;;;;21.77;11.53;;;;;;;;;;5073123;28;20474;-71
2022/04/17 02:58:28;;;;;;;15.60;10.60;;;;;;;;;;5073187;28;20479;-71
2022/04/17 03:06:45;;;;;;;17.10;11.47;;;;;;;;;;5044096;28;20436;-71
2022/04/17 03:09:13;;;;;;;15.30;11.57;;;;;;;;;;5072916;28;20474;-71
2022/04/17 03:11:40;;;;;;;15.10;10.33;;;;;;;;;;5072961;28;20523;-71
2022/04/17 03:14:07;;;;;;;19.80;12.10;;;;;;;;;;5073151;28;20455;-71
2022/04/17 03:16:34;;;;;;;16.30;11.07;;;;;;;;;;5073406;28;20444;-71
2022/04/17 03:19:03;;;;;;;15.57;10.13;;;;;;;;;;5072794;28;20474;-71
2022/04/17 03:21:31;;;;;;;25.20;15.30;;;;;;;;;;5072547;28;20474;-71
2022/04/17 03:23:58;;;;;;;22.47;12.70;;;;;;;;;;5072841;28;20455;-71
2022/04/17 03:26:25;;;;;;;16.40;11.97;;;;;;;;;;5072912;28;20968;-71
2022/04/17 03:28:54;;;;;;;14.10;9.50;;;;;;;;;;5072905;28;20977;-71
2022/04/17 03:31:21;;;;;;;12.57;8.50;;;;;;;;;;5072762;28;20846;-71
2022/04/17 03:33:48;;;;;;;14.80;9.07;;;;;;;;;;5072652;28;20451;-71
2022/04/17 03:36:16;;;;;;;15.67;9.47;;;;;;;;;;5073005;28;20443;-71
2022/04/17 03:38:44;;;;;;;15.70;10.13;;;;;;;;;;5072773;28;20972;-71
2022/04/17 03:41:11;;;;;;;13.43;10.10;;;;;;;;;;5072936;28;20478;-71
2022/04/17 03:43:38;;;;;;;13.57;9.50;;;;;;;;;;5072507;28;20470;-71
2022/04/17 03:46:05;;;;;;;19.50;9.87;;;;;;;;;;5072612;28;20460;-71
2022/04/17 03:48:32;;;;;;;13.30;10.00;;;;;;;;;;5072619;28;20486;-71
2022/04/17 03:50:59;;;;;;;16.50;10.00;;;;;;;;;;5072642;28;20491;-71
2022/04/17 03:53:28;;;;;;;16.67;11.73;;;;;;;;;;5072699;28;20455;-71
2022/04/17 03:55:56;;;;;;;12.03;9.50;;;;;;;;;;5072639;28;20448;-71
2022/04/17 03:58:23;;;;;;;13.67;9.50;;;;;;;;;;5072735;28;20976;-71
2022/04/17 04:00:50;;;;;;;12.60;9.57;;;;;;;;;;5072670;28;20451;-71
2022/04/17 04:03:17;;;;;;;13.07;9.77;;;;;;;;;;5072578;28;20487;-71
2022/04/17 04:05:45;;;;;;;15.70;9.40;;;;;;;;;;5072802;28;20963;-71
2022/04/17 04:08:12;;;;;;;18.10;13.13;;;;;;;;;;5072420;28;20483;-71
2022/04/17 04:10:40;;;;;;;15.40;9.80;;;;;;;;;;5072599;28;20459;-71
2022/04/17 04:13:07;;;;;;;15.20;10.33;;;;;;;;;;5072385;28;20455;-71
2022/04/17 04:15:34;;;;;;;16.47;8.30;;;;;;;;;;5072347;28;20447;-71
2022/04/17 04:18:02;;;;;;;15.03;10.10;;;;;;;;;;5072271;28;20455;-71
2022/04/17 04:20:29;;;;;;;13.67;10.77;;;;;;;;;;5072446;28;20456;-71
2022/04/17 04:22:57;;;;;;;11.33;9.53;;;;;;;;;;5072158;28;20534;-71
2022/04/17 04:25:24;;;;;;;19.70;11.43;;;;;;;;;;5072085;28;20475;-71
2022/04/17 04:30:37;;;;;;;14.87;9.13;;;;;;;;;;5073187;28;20791;-71
2022/04/17 04:33:04;;;;;;;13.87;8.27;;;;;;;;;;5075874;28;20869;-71
2022/04/17 04:35:33;;;;;;;14.00;9.37;;;;;;;;;;5075708;28;20948;-71
2022/04/17 04:38:01;;;;;;;14.20;9.90;;;;;;;;;;5075699;28;20455;-71
2022/04/17 04:40:29;;;;;;;11.70;8.30;;;;;;;;;;5075917;28;20459;-71
2022/04/17 04:43:01;;;;;;;11.47;9.30;;;;;;;;;;5075602;28;20851;-71
2022/04/17 04:48:13;;;;;;;11.23;8.10;;;;;;;;;;5075457;28;20846;-71
2022/04/17 04:50:40;;;;;;;445.60;149.63;;;;;;;;;;5075311;28;20470;-71
2022/04/17 04:53:08;;;;;;;472.33;164.93;;;;;;;;;;5075402;28;20451;-71
2022/04/17 04:55:35;;;;;;;916.23;356.30;;;;;;;;;;5075346;28;20494;-71
2022/04/17 04:58:03;;;;;;;284.27;95.37;;;;;;;;;;5075253;28;20447;-71
2022/04/17 05:00:30;;;;;;;17.80;8.07;;;;;;;;;;5075603;28;20561;-71
2022/04/17 05:02:57;;;;;;;9.10;6.60;;;;;;;;;;5075154;28;20448;-71
2022/04/17 05:05:24;;;;;;;11.47;6.97;;;;;;;;;;5075284;28;20459;-72
2022/04/17 05:07:51;;;;;;;8.13;6.83;;;;;;;;;;5075310;28;20809;-72
2022/04/17 05:10:19;;;;;;;7.53;6.10;;;;;;;;;;5075213;28;20467;-72
2022/04/17 05:12:46;;;;;;;7.70;5.90;;;;;;;;;;5075086;28;20495;-71
2022/04/17 05:15:15;;;;;;;7.33;6.53;;;;;;;;;;5074874;28;20498;-72
2022/04/17 05:17:42;;;;;;;6.90;6.23;;;;;;;;;;5074886;28;20551;-72
2022/04/17 05:20:11;;;;;;;8.07;6.07;;;;;;;;;;5074966;28;20478;-72
2022/04/17 05:22:38;;;;;;;8.23;5.70;;;;;;;;;;5074692;28;20849;-72
2022/04/17 05:25:06;;;;;;;5.93;5.43;;;;;;;;;;5074552;28;20462;-72
2022/04/17 05:27:33;;;;;;;6.10;5.57;;;;;;;;;;5074883;28;20458;-74
2022/04/17 05:30:00;;;;;;;5.67;5.27;;;;;;;;;;5074657;28;20471;-73
2022/04/17 05:32:28;;;;;;;8.27;6.20;;;;;;;;;;5074826;28;20487;-73
2022/04/17 05:34:55;;;;;;;7.20;6.30;;;;;;;;;;5074543;28;20945;-73
2022/04/17 05:37:22;;;;;;;5.40;4.90;;;;;;;;;;5074702;28;20956;-73
2022/04/17 05:39:49;;;;;;;5.97;4.93;;;;;;;;;;5074554;28;20466;-73
2022/04/17 05:42:17;;;;;;;6.27;5.33;;;;;;;;;;5073379;28;20460;-73
2022/04/17 05:44:44;;;;;;;7.70;6.07;;;;;;;;;;5074431;28;20458;-73
2022/04/17 05:47:11;;;;;;;6.37;5.70;;;;;;;;;;5074576;28;20455;-73
2022/04/17 05:49:39;;;;;;;6.27;5.67;;;;;;;;;;5074382;28;20479;-73
2022/04/17 05:52:07;;;;;;;6.80;6.27;;;;;;;;;;5074192;28;20484;-73
2022/04/17 05:54:34;;;;;;;7.00;6.33;;;;;;;;;;5074168;28;20956;-73
2022/04/17 05:57:01;;;;;;;6.43;5.63;;;;;;;;;;5074254;28;20460;-73
2022/04/17 05:59:28;;;;;;;13.00;5.53;;;;;;;;;;5074257;28;20494;-73
2022/04/17 06:01:55;;;;;;;5.30;4.80;;;;;;;;;;5074179;28;20448;-73
2022/04/17 06:04:22;;;;;;;5.57;5.17;;;;;;;;;;5073882;28;20452;-73
2022/04/17 06:06:51;;;;;;;6.17;5.57;;;;;;;;;;5074167;28;20546;-73
2022/04/17 06:09:18;;;;;;;5.03;4.50;;;;;;;;;;5074001;28;20468;-73
2022/04/17 06:11:45;;;;;;;6.13;5.60;;;;;;;;;;5073877;28;20491;-73
2022/04/17 06:14:12;;;;;;;6.60;4.90;;;;;;;;;;5073717;28;20456;-73
2022/04/17 06:16:40;;;;;;;9.27;5.83;;;;;;;;;;5073867;28;20448;-73
2022/04/17 06:19:09;;;;;;;7.13;6.43;;;;;;;;;;5073675;28;20475;-73
2022/04/17 06:21:36;;;;;;;6.63;6.03;;;;;;;;;;5073451;28;20448;-73
2022/04/17 06:24:04;;;;;;;5.27;4.77;;;;;;;;;;5073570;28;20552;-73
2022/04/17 06:26:33;;;;;;;5.73;5.27;;;;;;;;;;5073517;28;20467;-73
2022/04/17 06:29:03;;;;;;;8.70;5.70;;;;;;;;;;5073760;28;21023;-73
2022/04/17 06:31:30;;;;;;;5.93;5.43;;;;;;;;;;5073492;28;20491;-73
2022/04/17 06:33:57;;;;;;;6.50;5.77;;;;;;;;;;5073298;28;20455;-72
2022/04/17 06:36:24;;;;;;;6.00;5.37;;;;;;;;;;5073517;28;20455;-72
2022/04/17 06:38:51;;;;;;;6.30;5.53;;;;;;;;;;5073567;28;20478;-72
2022/04/17 06:41:20;;;;;;;5.67;5.07;;;;;;;;;;5073565;28;20463;-72
2022/04/17 06:43:47;;;;;;;5.63;5.13;;;;;;;;;;5073209;28;20676;-72
2022/04/17 06:46:14;;;;;;;5.27;4.73;;;;;;;;;;5073302;28;20847;-72
2022/04/17 06:48:41;;;;;;;5.70;5.10;;;;;;;;;;5073363;28;20471;-72
2022/04/17 06:51:08;;;;;;;5.30;4.80;;;;;;;;;;5073439;28;20452;-72
2022/04/17 06:53:35;;;;;;;7.30;5.60;;;;;;;;;;5072901;28;20495;-72
2022/04/17 06:56:02;;;;;;;7.03;5.83;;;;;;;;;;5073204;28;20447;-72
2022/04/17 06:58:31;;;;;;;5.90;5.13;;;;;;;;;;5073289;28;20467;-72
2022/04/17 07:00:58;;;;;;;7.87;4.70;;;;;;;;;;5073453;28;20455;-72
2022/04/17 07:03:25;;;;;;;5.40;5.00;;;;;;;;;;5073252;28;20444;-72
2022/04/17 07:05:52;;;;;;;8.40;5.47;;;;;;;;;;5072815;28;20454;-72
2022/04/17 07:08:19;;;;;;;5.90;5.40;;;;;;;;;;5072906;28;20814;-72
2022/04/17 07:10:46;;;;;;;5.27;4.77;;;;;;;;;;5073420;28;20451;-72
2022/04/17 07:13:15;;;;;;;9.53;5.47;;;;;;;;;;5072824;28;20483;-72
2022/04/17 07:15:43;;;;;;;6.17;4.73;;;;;;;;;;5072840;28;20455;-72
2022/04/17 07:18:10;;;;;;;6.53;5.10;;;;;;;;;;5073034;28;20452;-72
2022/04/17 07:20:38;;;;;;;5.50;4.93;;;;;;;;;;5073162;28;20444;-72
2022/04/17 07:23:06;;;;;;;5.53;5.00;;;;;;;;;;5072508;28;20505;-72
2022/04/17 07:25:33;;;;;;;4.83;4.43;;;;;;;;;;5072604;28;20495;-72
2022/04/17 07:28:00;;;;;;;5.83;5.10;;;;;;;;;;5072772;28;20455;-72
2022/04/17 07:30:29;;;;;;;6.70;4.43;;;;;;;;;;5073002;28;20463;-72
2022/04/17 07:32:58;;;;;;;6.63;4.67;;;;;;;;;;5072586;28;20483;-72
2022/04/17 07:35:26;;;;;;;6.00;5.40;;;;;;;;;;5072646;28;20447;-72
2022/04/17 07:37:54;;;;;;;6.30;5.70;;;;;;;;;;5072678;28;20470;-72
2022/04/17 07:40:23;;;;;;;6.30;5.43;;;;;;;;;;5072747;28;20479;-72
2022/04/17 07:42:51;;;;;;;6.93;5.00;;;;;;;;;;5072662;28;20455;-72
2022/04/17 07:45:18;;;;;;;5.40;4.73;;;;;;;;;;5072614;28;20502;-72
2022/04/17 07:47:46;;;;;;;4.90;4.00;;;;;;;;;;5072887;28;20825;-72
2022/04/17 07:50:16;;;;;;;4.90;4.50;;;;;;;;;;5072527;28;21015;-72
2022/04/17 07:52:43;;;;;;;7.23;4.07;;;;;;;;;;5072690;28;20554;-72
2022/04/17 07:55:11;;;;;;;4.57;4.17;;;;;;;;;;5072332;28;20490;-72
2022/04/17 08:00:21;;;;;;;5.70;4.73;;;;;;;;;;5072728;28;20455;-72
2022/04/17 08:02:53;;;;;;;5.67;4.20;;;;;;;;;;5072513;28;20448;-72
2022/04/17 08:05:22;;;;;;;5.73;4.27;;;;;;;;;;5072684;28;20543;-72
2022/04/17 08:07:49;;;;;;;7.07;4.27;;;;;;;;;;5076550;28;20783;-72
2022/04/17 08:10:17;;;;;;;6.60;4.47;;;;;;;;;;5076127;28;20443;-72
2022/04/17 08:12:44;;;;;;;6.30;5.27;;;;;;;;;;5076151;28;21023;-72
2022/04/17 08:15:12;;;;;;;5.67;4.43;;;;;;;;;;5075893;28;20448;-72
2022/04/17 08:17:39;;;;;;;5.50;4.10;;;;;;;;;;5076185;28;20475;-72
2022/04/17 08:20:07;;;;;;;5.93;4.77;;;;;;;;;;5076218;28;20482;-72
2022/04/17 08:22:35;;;;;;;5.17;4.47;;;;;;;;;;5075756;28;20451;-72
2022/04/17 08:25:02;;;;;;;4.27;3.33;;;;;;;;;;5075707;28;20459;-72
2022/04/17 08:27:29;;;;;;;4.50;3.40;;;;;;;;;;5076105;28;20459;-72
2022/04/17 08:29:56;;;;;;;6.97;4.00;;;;;;;;;;5075957;28;20472;-72
2022/04/17 08:32:24;;;;;;;4.03;3.60;;;;;;;;;;5075946;28;20984;-72
2022/04/17 08:34:51;;;;;;;6.10;3.47;;;;;;;;;;5075747;28;20828;-72
2022/04/17 08:37:18;;;;;;;4.20;3.80;;;;;;;;;;5075744;28;20820;-72
2022/04/17 08:39:46;;;;;;;4.90;3.87;;;;;;;;;;5075596;28;20555;-72
2022/04/17 08:42:13;;;;;;;3.97;3.27;;;;;;;;;;5075694;28;20448;-72
2022/04/17 08:44:40;;;;;;;6.13;4.03;;;;;;;;;;5075673;28;20820;-72
2022/04/17 08:47:08;;;;;;;4.27;3.87;;;;;;;;;;5075675;28;20456;-72
2022/04/17 08:49:36;;;;;;;4.00;3.60;;;;;;;;;;5075612;28;21023;-72
2022/04/17 08:52:04;;;;;;;3.30;3.00;;;;;;;;;;5075401;28;20960;-72
2022/04/17 08:54:31;;;;;;;4.33;3.00;;;;;;;;;;5075350;28;20550;-72
2022/04/17 08:57:00;;;;;;;4.33;3.23;;;;;;;;;;5075450;28;20462;-72
2022/04/17 08:59:27;;;;;;;4.20;3.83;;;;;;;;;;5075417;28;20977;-72
2022/04/17 09:01:54;;;;;;;7.23;3.57;;;;;;;;;;5075554;28;20444;-72
2022/04/17 09:04:22;;;;;;;5.13;3.33;;;;;;;;;;5075444;28;20456;-72
2022/04/17 09:06:50;;;;;;;4.40;3.90;;;;;;;;;;5075832;28;20459;-72
2022/04/17 09:09:21;;;;;;;8.43;6.73;;;;;;;;;;5075200;28;20471;-72
2022/04/17 09:11:54;;;;;;;3.80;3.23;;;;;;;;;;5075459;28;20518;-72
2022/04/17 09:14:23;;;;;;;4.67;3.20;;;;;;;;;;5075186;28;20480;-72
2022/04/17 09:16:51;;;;;;;5.23;3.30;;;;;;;;;;5074769;28;20450;-72
2022/04/17 09:19:19;;;;;;;3.40;2.80;;;;;;;;;;5074920;28;20475;-72
2022/04/17 09:21:47;;;;;;;3.80;2.53;;;;;;;;;;5074903;28;20561;-72
2022/04/17 09:24:15;;;;;;;4.70;4.03;;;;;;;;;;5074863;28;20447;-72
2022/04/17 09:26:49;;;;;;;6.53;3.50;;;;;;;;;;5075191;28;20468;-72
2022/04/17 09:29:20;;;;;;;4.33;3.40;;;;;;;;;;5074714;28;20503;-72
2022/04/17 09:31:49;;;;;;;4.77;3.93;;;;;;;;;;5074864;28;20792;-72
2022/04/17 09:34:16;;;;;;;3.90;3.30;;;;;;;;;;5074528;28;20487;-72
2022/04/17 09:36:44;;;;;;;5.77;3.20;;;;;;;;;;5074731;28;20463;-72
2022/04/17 09:39:15;;;;;;;7.20;3.50;;;;;;;;;;5074651;28;20472;-72
2022/04/17 09:41:57;;;;;;;2.90;2.63;;;;;;;;;;5074581;28;20451;-72
2022/04/17 09:44:46;;;;;;;4.60;3.73;;;;;;;;;;5074368;28;20443;-72
2022/04/17 09:47:16;;;;;;;5.03;4.10;;;;;;;;;;5074399;28;20551;-72
2022/04/17 09:49:57;;;;;;;3.90;3.40;;;;;;;;;;5074632;28;20837;-72
2022/04/17 09:52:25;;;;;;;4.13;2.93;;;;;;;;;;5074326;28;20454;-72
2022/04/17 09:54:52;;;;;;;5.40;3.13;;;;;;;;;;5074116;28;20456;-72
2022/04/17 09:57:20;;;;;;;4.70;3.60;;;;;;;;;;5074443;28;20455;-72
2022/04/17 09:59:48;;;;;;;3.83;3.53;;;;;;;;;;5074313;28;20479;-72
2022/04/17 10:02:17;;;;;;;3.33;3.03;;;;;;;;;;5074015;28;20494;-72
2022/04/17 10:04:45;;;;;;;3.70;3.37;;;;;;;;;;5073787;28;20456;-72
2022/04/17 10:07:14;;;;;;;5.33;2.60;;;;;;;;;;5073809;28;20455;-72
2022/04/17 10:09:42;;;;;;;4.33;3.33;;;;;;;;;;5073959;28;20988;-72
2022/04/17 10:12:10;;;;;;;4.73;3.80;;;;;;;;;;5073892;28;20991;-72
2022/04/17 10:14:37;;;;;;;3.87;3.20;;;;;;;;;;5073642;28;20487;-72
2022/04/17 10:17:08;;;;;;;3.47;3.17;;;;;;;;;;5073872;28;21006;-72
2022/04/17 10:19:36;;;;;;;3.73;2.77;;;;;;;;;;5073952;28;20464;-72
2022/04/17 10:22:04;;;;;;;4.70;3.30;;;;;;;;;;5073370;28;20459;-72
2022/04/17 10:24:33;;;;;;;3.93;3.23;;;;;;;;;;5073710;28;20820;-72
2022/04/17 10:27:01;;;;;;;5.23;2.73;;;;;;;;;;5073789;28;20855;-72
2022/04/17 10:29:31;;;;;;;2.97;2.27;;;;;;;;;;5073028;28;20482;-72
2022/04/17 10:32:05;;;;;;;4.97;3.17;;;;;;;;;;5073402;28;20451;-72
2022/04/17 10:34:48;;;;;;;6.47;3.07;;;;;;;;;;5073316;28;20495;-72
2022/04/17 10:37:24;;;;;;;4.47;3.30;;;;;;;;;;5073434;28;20517;-72
2022/04/17 10:39:53;;;;;;;3.67;2.40;;;;;;;;;;5073431;28;20486;-72
2022/04/17 10:42:22;;;;;;;3.40;2.63;;;;;;;;;;5073408;28;20502;-72
2022/04/17 10:45:02;;;;;;;2.80;2.27;;;;;;;;;;5073299;28;20447;-72
2022/04/17 10:47:30;;;;;;;3.63;2.73;;;;;;;;;;5073616;28;20886;-72
2022/04/17 10:50:00;;;;;;;2.80;2.23;;;;;;;;;;5073400;28;20475;-72
2022/04/17 10:52:29;;;;;;;3.50;2.53;;;;;;;;;;5073240;28;20444;-72
2022/04/17 10:54:56;;;;;;;7.00;2.87;;;;;;;;;;5072841;28;20488;-72
2022/04/17 10:57:25;;;;;;;2.70;2.50;;;;;;;;;;5073251;28;20962;-72
2022/04/17 11:00:12;;;;;;;4.87;2.40;;;;;;;;;;5073235;28;20515;-72
2022/04/17 11:02:39;;;;;;;3.57;2.70;;;;;;;;;;5072983;28;20464;-72
2022/04/17 11:05:08;;;;;;;3.17;2.20;;;;;;;;;;5072949;28;20440;-72
2022/04/17 11:07:36;;;;;;;3.70;2.30;;;;;;;;;;5073137;28;20447;-72
2022/04/17 11:10:23;;;;;;;2.90;2.40;;;;;;;;;;5073122;28;20475;-72
2022/04/17 11:12:54;;;;;;;3.40;2.70;;;;;;;;;;5073059;28;20459;-72
2022/04/17 11:15:23;;;;;;;2.67;2.23;;;;;;;;;;5073077;28;20849;-72
2022/04/17 11:17:50;;;;;;;2.73;2.40;;;;;;;;;;5072920;28;20448;-72
2022/04/17 11:20:20;;;;;;;5.73;2.83;;;;;;;;;;5073274;28;20446;-72
2022/04/17 11:22:47;;;;;;;6.00;2.40;;;;;;;;;;5072499;28;20459;-72
2022/04/17 11:25:14;;;;;;;5.30;2.97;;;;;;;;;;5072657;28;20459;-72
2022/04/17 11:27:42;;;;;;;2.83;2.40;;;;;;;;;;5073065;28;20447;-72
2022/04/17 11:30:10;;;;;;;3.17;2.07;;;;;;;;;;5072656;28;20482;-72
2022/04/17 11:32:47;;;;;;;5.27;2.93;;;;;;;;;;5072983;28;20458;-72
2022/04/17 11:35:16;;;;;;;2.43;2.23;;;;;;;;;;5072539;28;20451;-72
2022/04/17 11:37:52;;;;;;;3.33;2.13;;;;;;;;;;5072764;28;20447;-72
2022/04/17 11:40:20;;;;;;;3.30;2.40;;;;;;;;;;5074814;28;20500;-72
2022/04/17 11:42:48;;;;;;;3.27;2.43;;;;;;;;;;5076721;28;20485;-72
2022/04/17 11:45:16;;;;;;;4.00;3.00;;;;;;;;;;5076513;28;20451;-72
2022/04/17 11:47:43;;;;;;;2.30;1.97;;;;;;;;;;5076820;28;20991;-72
2022/04/17 11:50:11;;;;;;;3.37;2.03;;;;;;;;;;5076717;28;20475;-72
2022/04/17 11:52:39;;;;;;;2.00;1.50;;;;;;;;;;5076665;28;20442;-72
2022/04/17 11:55:08;;;;;;;3.70;2.03;;;;;;;;;;5076245;28;20487;-73
2022/04/17 11:57:35;;;;;;;5.07;2.10;;;;;;;;;;5076824;28;20479;-72
2022/04/17 12:00:02;;;;;;;3.07;2.47;;;;;;;;;;5076356;28;20478;-72
2022/04/17 12:02:30;;;;;;;2.63;1.97;;;;;;;;;;5076615;28;20459;-72
2022/04/17 12:04:58;;;;;;;2.50;2.30;;;;;;;;;;5076155;28;20964;-72
2022/04/17 12:07:26;;;;;;;3.10;2.60;;;;;;;;;;5076559;28;20456;-72
2022/04/17 12:10:03;;;;;;;5.43;2.60;;;;;;;;;;5076137;28;21011;-72
2022/04/17 12:12:35;;;;;;;3.27;2.67;;;;;;;;;;5076529;28;20888;-72
2022/04/17 12:15:03;;;;;;;3.63;2.40;;;;;;;;;;5075917;28;20491;-72
2022/04/17 12:17:31;;;;;;;2.50;2.23;;;;;;;;;;5076263;28;20447;-72
2022/04/17 12:19:58;;;;;;;3.60;2.80;;;;;;;;;;5076246;28;20495;-72
2022/04/17 12:22:26;;;;;;;3.93;3.07;;;;;;;;;;5075620;28;20447;-72
2022/04/17 12:24:53;;;;;;;2.77;2.53;;;;;;;;;;5075718;28;20466;-72
2022/04/17 12:27:21;;;;;;;4.63;2.57;;;;;;;;;;5075924;28;20451;-72
2022/04/17 12:29:49;;;;;;;4.60;2.80;;;;;;;;;;5076017;28;20471;-72
2022/04/17 12:32:17;;;;;;;4.03;2.83;;;;;;;;;;5075943;28;20455;-72
2022/04/17 12:34:45;;;;;;;5.70;3.43;;;;;;;;;;5075456;28;20857;-72
2022/04/17 12:37:21;;;;;;;7.93;3.37;;;;;;;;;;5075817;28;20463;-72
2022/04/17 12:39:48;;;;;;;3.07;2.77;;;;;;;;;;5075653;28;20509;-72
2022/04/17 12:42:18;;;;;;;4.17;3.00;;;;;;;;;;5075850;28;20459;-72
2022/04/17 12:44:47;;;;;;;3.00;2.80;;;;;;;;;;5075582;28;20451;-72
2022/04/17 12:47:16;;;;;;;3.87;2.83;;;;;;;;;;5075610;28;20550;-72
2022/04/17 12:49:43;;;;;;;4.13;3.27;;;;;;;;;;5075422;28;20486;-72
2022/04/17 12:52:21;;;;;;;6.53;2.80;;;;;;;;;;5074820;28;20467;-72
2022/04/17 12:54:48;;;;;;;4.03;3.00;;;;;;;;;;5075305;28;20491;-72
2022/04/17 12:57:20;;;;;;;4.10;2.80;;;;;;;;;;5075759;28;20448;-72
2022/04/17 12:59:48;;;;;;;2.83;2.20;;;;;;;;;;5075430;28;20463;-72
2022/04/17 13:02:18;;;;;;;4.70;2.80;;;;;;;;;;5075201;28;20483;-72
2022/04/17 13:04:46;;;;;;;3.37;2.90;;;;;;;;;;5075187;28;20452;-72
2022/04/17 13:07:14;;;;;;;3.10;2.50;;;;;;;;;;5075517;28;20454;-72
2022/04/17 13:09:50;;;;;;;4.10;2.80;;;;;;;;;;5075321;28;20486;-72
2022/04/17 13:12:30;;;;;;;4.57;2.60;;;;;;;;;;5075191;28;20890;-72
2022/04/17 13:14:57;;;;;;;2.90;2.60;;;;;;;;;;5074762;28;20515;-72
2022/04/17 13:17:26;;;;;;;5.30;4.70;;;;;;;;;;5075436;28;20455;-72
2022/04/17 13:19:53;;;;;;;4.10;3.07;;;;;;;;;;5075031;28;20653;-72
2022/04/17 13:22:20;;;;;;;4.03;3.50;;;;;;;;;;5074548;28;20462;-72
2022/04/17 13:24:48;;;;;;;3.57;2.73;;;;;;;;;;5074798;28;20443;-72
2022/04/17 13:27:15;;;;;;;3.33;2.67;;;;;;;;;;5075026;28;20460;-72
2022/04/17 13:29:44;;;;;;;3.43;3.03;;;;;;;;;;5074961;28;20471;-72
2022/04/17 13:32:12;;;;;;;4.07;3.23;;;;;;;;;;5074901;28;20459;-72
2022/04/17 13:34:42;;;;;;;2.70;2.50;;;;;;;;;;5074541;28;20518;-72
2022/04/17 13:39:54;;;;;;;4.00;2.77;;;;;;;;;;5074639;28;20451;-72
2022/04/17 13:42:21;;;;;;;3.43;3.00;;;;;;;;;;5074594;28;20486;-72
2022/04/17 13:44:48;;;;;;;7.70;3.20;;;;;;;;;;5074431;28;20467;-72
2022/04/17 13:47:15;;;;;;;4.40;3.80;;;;;;;;;;5074577;28;20448;-72
2022/04/17 13:49:44;;;;;;;4.20;2.87;;;;;;;;;;5074594;28;20977;-72
2022/04/17 13:52:11;;;;;;;5.17;3.17;;;;;;;;;;5074464;28;20454;-72
2022/04/17 13:54:38;;;;;;;3.50;3.20;;;;;;;;;;5074300;28;20582;-72
2022/04/17 13:57:05;;;;;;;4.00;3.43;;;;;;;;;;5074224;28;20816;-72
2022/04/17 13:59:33;;;;;;;3.17;2.80;;;;;;;;;;5074324;28;20467;-72
2022/04/17 14:02:00;;;;;;;3.13;2.80;;;;;;;;;;5074158;28;20458;-72
2022/04/17 14:04:27;;;;;;;3.70;3.23;;;;;;;;;;5073104;28;20459;-72
2022/04/17 14:06:56;;;;;;;3.20;2.90;;;;;;;;;;5074071;28;20458;-72
2022/04/17 14:09:23;;;;;;;3.60;2.70;;;;;;;;;;5074177;28;21014;-72
2022/04/17 14:11:51;;;;;;;3.67;3.33;;;;;;;;;;5074028;28;20458;-72
2022/04/17 14:14:18;;;;;;;2.93;2.63;;;;;;;;;;5073797;28;20495;-72
2022/04/17 14:16:45;;;;;;;7.70;4.80;;;;;;;;;;5074103;28;20454;-72
2022/04/17 14:19:12;;;;;;;3.80;2.80;;;;;;;;;;5073893;28;20480;-72
2022/04/17 14:21:39;;;;;;;3.40;2.77;;;;;;;;;;5073505;28;20451;-72
2022/04/17 14:24:14;;;;;;;3.30;3.00;;;;;;;;;;5110983;27;20579;-72
2022/04/17 14:26:42;;;;;;;3.87;2.80;;;;;;;;;;5110932;28;20512;-72
2022/04/17 14:29:09;;;;;;;16.43;14.87;;;;;;;;;;5110933;28;20913;-72
2022/04/17 14:31:36;;;;;;;3.80;3.00;;;;;;;;;;5110934;28;20460;-72
2022/04/17 14:34:03;;;;;;;2.90;2.30;;;;;;;;;;5110717;28;20453;-72
2022/04/17 14:36:30;;;;;;;6.33;4.13;;;;;;;;;;5110920;28;20448;-72
2022/04/17 14:38:58;;;;;;;4.40;3.00;;;;;;;;;;5110864;28;20962;-72
2022/04/17 14:41:26;;;;;;;3.03;2.73;;;;;;;;;;5110809;28;20461;-72
2022/04/17 14:43:53;;;;;;;26.90;15.03;;;;;;;;;;5110439;28;20497;-72
2022/04/17 14:46:20;;;;;;;315.40;214.00;;;;;;;;;;5110611;28;20466;-72
2022/04/17 14:48:47;;;;;;;25.00;19.07;;;;;;;;;;5110465;28;20470;-72
2022/04/17 14:51:15;;;;;;;3.97;2.53;;;;;;;;;;5110623;28;20457;-72
2022/04/17 14:53:43;;;;;;;7.20;3.50;;;;;;;;;;5110276;28;20446;-72
2022/04/17 14:56:10;;;;;;;4.67;3.73;;;;;;;;;;5110490;28;20526;-72
2022/04/17 14:58:39;;;;;;;3.20;2.67;;;;;;;;;;5110258;28;20474;-72
2022/04/17 15:01:06;;;;;;;3.63;3.10;;;;;;;;;;5110383;28;20938;-72